Stampa

METAR LIMF - Aeroporto di Roma Fiumicino FCO

Roma Fiumicino, Italy (LIRF) 41-48N 012-14E 3M

Oct 17, 2019 - 09:50 AM EDT / 2019.10.17 1350 UTC

Wind: from the W (270 degrees) at 8 MPH (7 KT):0

Visibility: greater than 7 mile(s):0

Temperature: 71 F (22 C)

Dew Point: 53 F (12 C)

Relative Humidity: 53%

Pressure (altimeter): 30.09 in. Hg (1019 hPa)

ob: LIRF 171350Z 27007KT CAVOK 22/12 Q1019 NOSIG

cycle: 14

 Dati METAR in tempo reale | Fonte: NOAA

Valuta questo articolo

1 1 1 1 1 1 1 1 1 1
Valutazione 0.00 (0 Voti)

hits
220
Ritieni il contenuto di questa pagina incompleto, non attendibile oppure oggetto di altre problematiche? INVIA UNA SEGNALAZIONE Grazie!